createdAt,value
2019-04-16T00:01:48.934Z,11.63
2019-04-16T00:04:53.629Z,14.17
2019-04-16T00:07:39.797Z,9.93
2019-04-16T00:10:27.026Z,11.50
2019-04-16T00:13:20.698Z,9.13
2019-04-16T00:15:49.637Z,12.33
2019-04-16T00:18:19.414Z,12.23
2019-04-16T00:21:16.753Z,10.97
2019-04-16T00:23:59.893Z,14.07
2019-04-16T00:26:28.844Z,11.43
2019-04-16T00:29:01.621Z,11.87
2019-04-16T00:31:28.888Z,12.07
2019-04-16T00:33:57.835Z,11.17
2019-04-16T00:36:26.714Z,12.30
2019-04-16T00:38:55.586Z,13.50
2019-04-16T00:41:24.408Z,13.50
2019-04-16T00:43:53.320Z,11.33
2019-04-16T00:46:22.310Z,12.13
2019-04-16T00:48:52.230Z,12.10
2019-04-16T00:51:21.141Z,11.53
2019-04-16T00:53:50.108Z,9.40
2019-04-16T00:56:18.948Z,11.53
2019-04-16T00:58:49.417Z,12.30
2019-04-16T01:01:18.573Z,11.17
2019-04-16T01:03:47.394Z,11.63
2019-04-16T01:06:16.231Z,10.87
2019-04-16T01:08:54.354Z,11.73
2019-04-16T01:11:15.607Z,10.87
2019-04-16T01:13:45.146Z,11.90
2019-04-16T01:16:14.338Z,10.70
2019-04-16T01:18:43.341Z,14.50
2019-04-16T01:21:14.150Z,11.67
2019-04-16T01:23:42.974Z,12.53
2019-04-16T01:26:11.819Z,12.33
2019-04-16T01:28:46.848Z,11.33
2019-04-16T01:31:44.738Z,10.50
2019-04-16T01:34:32.760Z,9.77
2019-04-16T01:37:19.240Z,14.00
2019-04-16T01:39:50.436Z,11.73
2019-04-16T01:42:23.136Z,12.20
2019-04-16T01:44:49.901Z,13.17
2019-04-16T01:47:18.750Z,11.97
2019-04-16T01:49:47.612Z,12.43
2019-04-16T01:52:18.940Z,12.20
2019-04-16T01:54:47.270Z,14.10
2019-04-16T01:57:16.262Z,13.90
2019-04-16T01:59:45.109Z,13.53
2019-04-16T02:02:15.580Z,13.40
2019-04-16T02:04:44.577Z,13.30
2019-04-16T02:07:13.522Z,13.00
2019-04-16T02:09:42.514Z,13.50
2019-04-16T02:12:13.231Z,12.57
2019-04-16T02:14:42.163Z,12.97
2019-04-16T02:17:11.169Z,13.43
2019-04-16T02:19:40.033Z,14.10
2019-04-16T02:22:12.570Z,16.13
2019-04-16T02:24:39.478Z,11.90
2019-04-16T02:27:08.558Z,11.10
2019-04-16T02:29:37.599Z,12.53
2019-04-16T02:32:06.527Z,12.80
2019-04-16T02:34:35.393Z,13.10
2019-04-16T02:37:04.600Z,11.10
2019-04-16T02:39:47.610Z,13.03
2019-04-16T02:42:04.706Z,11.73
2019-04-16T02:44:33.729Z,12.13
2019-04-16T02:47:06.219Z,12.30
2019-04-16T02:49:33.313Z,13.40
2019-04-16T02:52:06.387Z,12.30
2019-04-16T02:54:45.716Z,13.37
2019-04-16T02:57:39.474Z,12.03
2019-04-16T03:00:22.889Z,12.77
2019-04-16T03:02:57.294Z,13.53
2019-04-16T03:05:37.926Z,11.43
2019-04-16T03:08:06.856Z,13.93
2019-04-16T03:10:36.395Z,11.57
2019-04-16T03:13:05.305Z,14.33
2019-04-16T03:16:06.352Z,13.87
2019-04-16T03:18:48.201Z,13.03
2019-04-16T03:21:17.429Z,13.10
2019-04-16T03:23:46.375Z,13.40
2019-04-16T03:26:17.588Z,14.20
2019-04-16T03:28:45.958Z,13.33
2019-04-16T03:31:20.676Z,12.17
2019-04-16T03:33:50.215Z,13.53
2019-04-16T03:36:16.154Z,13.33
2019-04-16T03:38:45.021Z,12.90
2019-04-16T03:41:13.938Z,13.13
2019-04-16T03:43:42.918Z,12.90
2019-04-16T03:46:13.097Z,13.07
2019-04-16T03:48:42.542Z,9.27
2019-04-16T03:51:11.487Z,13.30
2019-04-16T03:53:40.401Z,12.13
2019-04-16T03:56:09.321Z,12.67
2019-04-16T03:58:39.401Z,14.03
2019-04-16T04:01:08.414Z,11.73
2019-04-16T04:03:37.275Z,13.13
2019-04-16T04:06:06.929Z,13.50
2019-04-16T04:08:37.223Z,13.70
2019-04-16T04:11:09.186Z,13.87
2019-04-16T04:13:36.786Z,13.50
2019-04-16T04:16:06.012Z,13.17
2019-04-16T04:18:35.013Z,12.87
2019-04-16T04:21:03.910Z,12.10
2019-04-16T04:23:32.771Z,12.77
2019-04-16T04:26:01.669Z,14.33
2019-04-16T04:28:30.521Z,12.37
2019-04-16T04:31:00.880Z,13.37
2019-04-16T04:33:40.991Z,12.17
2019-04-16T04:36:09.441Z,13.43
2019-04-16T04:38:39.619Z,14.37
2019-04-16T04:41:08.855Z,13.33
2019-04-16T04:43:37.997Z,15.97
2019-04-16T04:46:12.976Z,14.17
2019-04-16T04:48:37.635Z,15.77
2019-04-16T04:51:08.144Z,12.97
2019-04-16T04:53:37.194Z,14.17
2019-04-16T04:56:06.164Z,13.70
2019-04-16T04:58:35.171Z,14.40
2019-04-16T05:01:04.155Z,13.33
2019-04-16T05:04:04.361Z,12.73
2019-04-16T05:06:36.078Z,13.77
2019-04-16T05:09:06.356Z,13.07
2019-04-16T05:11:35.232Z,13.20
2019-04-16T05:14:04.283Z,13.37
2019-04-16T05:16:34.370Z,12.43
2019-04-16T05:19:04.191Z,14.47
2019-04-16T05:21:33.070Z,14.13
2019-04-16T05:24:01.914Z,14.73
2019-04-16T05:26:33.524Z,13.47
2019-04-16T05:29:16.309Z,12.80
2019-04-16T05:31:42.882Z,12.80
2019-04-16T05:34:11.862Z,11.77
2019-04-16T05:36:46.573Z,19.70
2019-04-16T05:39:11.441Z,14.43
2019-04-16T05:41:40.371Z,14.67
2019-04-16T05:44:09.287Z,13.87
2019-04-16T05:46:38.343Z,13.90
2019-04-16T05:49:07.663Z,13.33
2019-04-16T05:51:36.506Z,14.00
2019-04-16T05:54:27.633Z,14.67
2019-04-16T05:56:58.331Z,13.87
2019-04-16T05:59:27.202Z,13.40
2019-04-16T06:02:04.977Z,14.10
2019-04-16T06:04:34.071Z,15.00
2019-04-16T06:07:07.315Z,14.67
2019-04-16T06:09:33.604Z,16.30
2019-04-16T06:12:02.505Z,15.40
2019-04-16T06:14:41.843Z,16.43
2019-04-16T06:17:31.891Z,15.10
2019-04-16T06:20:07.477Z,14.27
2019-04-16T06:22:54.161Z,16.30
2019-04-16T06:25:41.041Z,13.90
2019-04-16T06:28:15.439Z,11.90
2019-04-16T06:30:48.238Z,14.63
2019-04-16T06:33:20.947Z,15.90
2019-04-16T06:36:08.501Z,14.70
2019-04-16T06:38:51.074Z,16.00
2019-04-16T06:41:41.802Z,13.97
2019-04-16T06:44:12.900Z,18.07
2019-04-16T06:46:51.369Z,18.00
2019-04-16T06:49:28.099Z,14.23
2019-04-16T06:52:19.164Z,14.10
2019-04-16T06:55:00.503Z,13.50
2019-04-16T06:57:45.129Z,13.37
2019-04-16T07:00:35.085Z,15.30
2019-04-16T07:03:28.752Z,13.03
2019-04-16T07:06:30.236Z,14.53
2019-04-16T07:09:24.594Z,14.13
2019-04-16T07:11:54.941Z,15.87
2019-04-16T07:14:24.218Z,14.40
2019-04-16T07:16:53.050Z,13.20
2019-04-16T07:19:22.110Z,14.73
2019-04-16T07:21:50.989Z,14.60
2019-04-16T07:24:22.770Z,14.13
2019-04-16T07:26:50.635Z,13.63
2019-04-16T07:29:31.570Z,14.53
2019-04-16T07:32:15.333Z,12.53
2019-04-16T07:34:53.436Z,15.13
2019-04-16T07:37:33.074Z,14.00
2019-04-16T07:40:36.048Z,12.63
2019-04-16T07:43:24.096Z,11.60
2019-04-16T07:46:03.120Z,13.93
2019-04-16T07:48:39.847Z,14.13
2019-04-16T07:51:36.043Z,14.53
2019-04-16T07:54:30.635Z,13.80
2019-04-16T07:56:59.570Z,14.53
2019-04-16T07:59:32.001Z,15.47
2019-04-16T08:01:59.100Z,14.73
2019-04-16T08:04:29.175Z,13.87
2019-04-16T08:06:58.447Z,13.90
2019-04-16T08:09:29.949Z,15.43
2019-04-16T08:11:58.117Z,14.47
2019-04-16T08:14:26.962Z,13.50
2019-04-16T08:16:56.052Z,13.47
2019-04-16T08:19:36.271Z,13.03
2019-04-16T08:21:55.452Z,14.27
2019-04-16T08:24:29.478Z,12.50
2019-04-16T08:26:58.358Z,14.40
2019-04-16T08:29:27.295Z,13.03
2019-04-16T08:31:56.277Z,13.73
2019-04-16T08:34:25.220Z,15.23
2019-04-16T08:36:54.068Z,12.23
2019-04-16T08:39:23.087Z,12.93
2019-04-16T08:41:53.025Z,15.33
2019-04-16T08:44:22.125Z,13.20
2019-04-16T08:46:51.053Z,13.73
2019-04-16T08:49:22.351Z,14.20
2019-04-16T08:51:50.487Z,14.90
2019-04-16T08:54:19.407Z,10.60
2019-04-16T08:56:48.401Z,13.80
2019-04-16T08:59:17.330Z,14.40
2019-04-16T09:01:46.662Z,13.87
2019-04-16T09:04:15.605Z,14.30
2019-04-16T09:06:46.372Z,11.60
2019-04-16T09:09:31.929Z,15.07
2019-04-16T09:12:07.870Z,14.10
2019-04-16T09:14:37.174Z,13.90
2019-04-16T09:17:15.691Z,13.13
2019-04-16T09:19:54.475Z,14.73
2019-04-16T09:22:23.322Z,18.20
2019-04-16T09:24:59.953Z,15.43
2019-04-16T09:27:40.514Z,15.43
2019-04-16T09:30:27.963Z,14.50
2019-04-16T09:33:02.322Z,16.73
2019-04-16T09:35:35.518Z,15.93
2019-04-16T09:38:18.798Z,14.53
2019-04-16T09:41:12.931Z,14.67
2019-04-16T09:43:44.943Z,14.17
2019-04-16T09:46:21.059Z,15.57
2019-04-16T09:48:44.586Z,17.00
2019-04-16T09:51:18.911Z,16.87
2019-04-16T09:53:44.097Z,16.63
2019-04-16T09:56:29.913Z,22.63
2019-04-16T09:59:14.768Z,16.73
2019-04-16T10:01:45.178Z,15.67
2019-04-16T10:04:16.366Z,16.10
2019-04-16T10:06:45.342Z,18.80
2019-04-16T10:09:20.023Z,16.23
2019-04-16T10:11:44.983Z,17.43
2019-04-16T10:14:13.915Z,15.70
2019-04-16T10:16:42.904Z,16.33
2019-04-16T10:19:11.897Z,11.60
2019-04-16T10:21:40.732Z,15.93
2019-04-16T10:24:27.496Z,13.60
2019-04-16T10:26:59.908Z,6.40
2019-04-16T10:29:28.118Z,12.93
2019-04-16T10:31:57.130Z,16.33
2019-04-16T10:34:26.005Z,19.20
2019-04-16T10:36:54.946Z,16.57
2019-04-16T10:39:30.132Z,17.43
2019-04-16T10:42:29.987Z,16.73
2019-04-16T10:45:10.431Z,20.00
2019-04-16T10:47:51.532Z,16.43
2019-04-16T10:50:39.602Z,17.50
2019-04-16T10:53:32.335Z,18.10
2019-04-16T10:56:12.276Z,18.77
2019-04-16T10:58:59.111Z,16.27
2019-04-16T11:01:35.738Z,17.33
2019-04-16T11:04:22.538Z,17.47
2019-04-16T11:06:52.088Z,18.43
2019-04-16T11:09:20.976Z,19.57
2019-04-16T11:11:49.930Z,23.23
2019-04-16T11:14:18.986Z,19.43
2019-04-16T11:16:50.720Z,19.47
2019-04-16T11:19:19.971Z,11.73
2019-04-16T11:21:48.882Z,18.53
2019-04-16T11:24:20.469Z,19.90
2019-04-16T11:26:48.525Z,20.43
2019-04-16T11:29:17.361Z,21.40
2019-04-16T11:31:46.296Z,16.40
2019-04-16T11:34:15.263Z,19.57
2019-04-16T11:36:44.307Z,21.03
2019-04-16T11:39:13.343Z,20.30
2019-04-16T11:41:42.356Z,20.40
2019-04-16T11:44:15.610Z,17.90
2019-04-16T11:46:41.990Z,17.30
2019-04-16T11:49:10.989Z,14.67
2019-04-16T11:51:39.846Z,20.70
2019-04-16T11:54:11.422Z,20.23
2019-04-16T11:56:39.301Z,22.23
2019-04-16T11:59:08.211Z,10.33
2019-04-16T12:01:46.485Z,14.17
2019-04-16T12:04:21.535Z,18.83
2019-04-16T12:07:08.457Z,20.50
2019-04-16T12:09:46.134Z,18.87
2019-04-16T12:12:20.390Z,18.37
2019-04-16T12:15:26.569Z,13.17
2019-04-16T12:18:23.617Z,19.30
2019-04-16T12:20:58.840Z,13.50
2019-04-16T12:23:33.866Z,14.77
2019-04-16T12:26:27.914Z,18.63
2019-04-16T12:29:12.783Z,19.53
2019-04-16T12:32:03.584Z,19.97
2019-04-16T12:34:51.322Z,20.43
2019-04-16T12:37:37.341Z,20.50
2019-04-16T12:40:18.576Z,20.47
2019-04-16T12:43:06.121Z,22.20
2019-04-16T12:45:57.114Z,12.30
2019-04-16T12:48:37.521Z,14.77
2019-04-16T12:51:29.330Z,20.57
2019-04-16T12:54:11.809Z,21.40
2019-04-16T12:56:51.588Z,20.20
2019-04-16T12:59:42.731Z,24.83
2019-04-16T13:02:25.710Z,19.27
2019-04-16T13:04:58.776Z,19.63
2019-04-16T13:07:39.984Z,21.23
2019-04-16T13:10:37.491Z,21.47
2019-04-16T13:13:24.058Z,21.10
2019-04-16T13:16:01.214Z,20.07
2019-04-16T13:18:48.188Z,17.57
2019-04-16T13:21:19.551Z,24.83
2019-04-16T13:24:06.387Z,17.90
2019-04-16T13:26:45.897Z,22.10
2019-04-16T13:29:17.478Z,21.87
2019-04-16T13:31:46.474Z,22.40
2019-04-16T13:34:18.312Z,17.87
2019-04-16T13:36:45.938Z,18.43
2019-04-16T13:39:29.183Z,19.07
2019-04-16T13:41:58.327Z,21.03
2019-04-16T13:44:31.031Z,22.07
2019-04-16T13:47:03.033Z,19.17
2019-04-16T13:49:49.680Z,21.57
2019-04-16T13:52:20.440Z,19.13
2019-04-16T13:55:10.054Z,21.77
2019-04-16T13:57:39.445Z,23.13
2019-04-16T14:00:33.598Z,22.00
2019-04-16T14:03:05.088Z,18.80
2019-04-16T14:05:37.422Z,20.03
2019-04-16T14:08:04.826Z,19.83
2019-04-16T14:10:33.919Z,21.13
2019-04-16T14:13:02.931Z,22.87
2019-04-16T14:15:39.061Z,23.57
2019-04-16T14:18:05.185Z,14.77
2019-04-16T14:20:34.157Z,17.80
2019-04-16T14:23:03.113Z,17.90
2019-04-16T14:25:32.032Z,25.30
2019-04-16T14:28:03.147Z,18.70
2019-04-16T14:30:35.403Z,22.97
2019-04-16T14:33:07.357Z,18.17
2019-04-16T14:35:40.233Z,22.93
2019-04-16T14:38:08.407Z,23.80
2019-04-16T14:40:39.711Z,25.57
2019-04-16T14:43:08.074Z,18.40
2019-04-16T14:45:57.083Z,19.77
2019-04-16T14:48:13.761Z,17.93
2019-04-16T14:50:42.760Z,19.20
2019-04-16T14:53:13.579Z,27.10
2019-04-16T14:55:59.747Z,11.57
2019-04-16T14:58:49.438Z,20.43
2019-04-16T15:01:36.402Z,20.13
2019-04-16T15:04:23.351Z,24.10
2019-04-16T15:07:10.094Z,25.50
2019-04-16T15:09:50.562Z,23.80
2019-04-16T15:12:41.651Z,25.70
2019-04-16T15:15:23.965Z,21.83
2019-04-16T15:17:59.471Z,24.57
2019-04-16T15:20:50.488Z,19.40
2019-04-16T15:23:29.285Z,24.03
2019-04-16T15:26:11.066Z,25.30
2019-04-16T15:28:47.943Z,27.30
2019-04-16T15:31:41.088Z,21.13
2019-04-16T15:34:21.655Z,23.87
2019-04-16T15:37:12.670Z,25.60
2019-04-16T15:39:47.162Z,22.93
2019-04-16T15:42:33.045Z,23.53
2019-04-16T15:45:08.903Z,25.70
2019-04-16T15:47:54.278Z,20.23
2019-04-16T15:50:38.562Z,18.23
2019-04-16T15:53:29.610Z,26.57
2019-04-16T15:56:12.067Z,22.70
2019-04-16T15:59:04.414Z,25.00
2019-04-16T16:01:51.169Z,24.47
2019-04-16T16:04:27.826Z,25.43
2019-04-16T16:07:02.200Z,27.73
2019-04-16T16:09:58.654Z,28.03
2019-04-16T16:12:29.475Z,27.10
2019-04-16T16:14:58.409Z,26.13
2019-04-16T16:17:27.680Z,19.80
2019-04-16T16:19:56.649Z,15.43
2019-04-16T16:22:25.640Z,24.57
2019-04-16T16:24:54.550Z,28.50
2019-04-16T16:27:23.398Z,29.13
2019-04-16T16:29:52.380Z,18.50
2019-04-16T16:32:21.389Z,26.13
2019-04-16T16:34:50.285Z,22.93
2019-04-16T16:37:19.282Z,23.07
2019-04-16T16:39:48.115Z,24.73
2019-04-16T16:42:17.021Z,25.67
2019-04-16T16:44:45.877Z,23.40
2019-04-16T16:47:39.676Z,23.43
2019-04-16T16:50:10.315Z,27.00
2019-04-16T16:53:04.350Z,21.77
2019-04-16T16:55:45.705Z,20.47
2019-04-16T16:58:43.028Z,29.20
2019-04-16T17:01:46.145Z,21.97
2019-04-16T17:04:20.457Z,17.93
2019-04-16T17:06:49.400Z,31.03
2019-04-16T17:09:27.184Z,27.73
2019-04-16T17:11:57.569Z,23.27
2019-04-16T17:14:26.558Z,25.00
2019-04-16T17:16:55.558Z,23.00
2019-04-16T17:19:24.578Z,28.33
2019-04-16T17:21:53.439Z,19.00
2019-04-16T17:24:22.447Z,28.50
2019-04-16T17:26:51.443Z,24.13
2019-04-16T17:29:20.367Z,22.67
2019-04-16T17:31:50.059Z,27.10
2019-04-16T17:34:19.167Z,23.40
2019-04-16T17:36:48.081Z,26.63
2019-04-16T17:39:30.275Z,26.67
2019-04-16T17:42:05.073Z,27.60
2019-04-16T17:44:54.324Z,25.30
2019-04-16T17:47:48.555Z,27.27
2019-04-16T17:50:42.549Z,27.57
2019-04-16T17:53:21.196Z,21.70
2019-04-16T17:56:09.083Z,24.07
2019-04-16T17:58:57.055Z,17.63
2019-04-16T18:01:55.794Z,26.33
2019-04-16T18:04:46.938Z,25.40
2019-04-16T18:07:22.753Z,16.63
2019-04-16T18:10:02.026Z,24.57
2019-04-16T18:12:55.245Z,28.83
2019-04-16T18:15:50.517Z,20.60
2019-04-16T18:18:30.697Z,20.30
2019-04-16T18:21:18.654Z,24.97
2019-04-16T18:24:08.958Z,21.80
2019-04-16T18:26:55.468Z,23.70
2019-04-16T18:29:33.090Z,22.33
2019-04-16T18:32:27.642Z,26.30
2019-04-16T18:35:16.528Z,21.10
2019-04-16T18:38:03.135Z,25.77
2019-04-16T18:40:44.669Z,21.57
2019-04-16T18:43:28.204Z,26.07
2019-04-16T18:46:15.335Z,26.47
2019-04-16T18:48:45.525Z,23.40
2019-04-16T18:51:14.796Z,25.23
2019-04-16T18:53:44.143Z,23.90
2019-04-16T18:56:13.495Z,25.87
2019-04-16T18:58:42.385Z,21.17
2019-04-16T19:01:15.403Z,23.43
2019-04-16T19:03:44.390Z,23.73
2019-04-16T19:06:13.415Z,22.67
2019-04-16T19:08:42.480Z,25.47
2019-04-16T19:11:11.502Z,23.70
2019-04-16T19:13:40.358Z,26.53
2019-04-16T19:16:09.662Z,22.27
2019-04-16T19:18:38.899Z,23.60
2019-04-16T19:21:07.790Z,21.57
2019-04-16T19:23:36.698Z,22.67
2019-04-16T19:26:06.097Z,23.30
2019-04-16T19:28:36.225Z,26.50
2019-04-16T19:31:06.182Z,26.33
2019-04-16T19:33:38.329Z,24.83
2019-04-16T19:36:06.129Z,27.40
2019-04-16T19:38:35.746Z,27.27
2019-04-16T19:41:05.698Z,23.67
2019-04-16T19:43:35.558Z,25.50
2019-04-16T19:46:04.659Z,26.23
2019-04-16T19:48:35.708Z,24.07
2019-04-16T19:51:07.350Z,24.50
2019-04-16T19:53:34.785Z,23.53
2019-04-16T19:56:03.764Z,22.47
2019-04-16T19:58:32.683Z,29.63
2019-04-16T20:01:01.697Z,28.53
2019-04-16T20:03:31.324Z,25.80
2019-04-16T20:06:00.390Z,27.80
2019-04-16T20:08:34.374Z,27.67
2019-04-16T20:10:59.837Z,26.40
2019-04-16T20:13:29.721Z,27.17
2019-04-16T20:16:00.029Z,25.80
2019-04-16T20:18:29.583Z,25.20
2019-04-16T20:21:01.075Z,24.47
2019-04-16T20:23:30.117Z,24.17
2019-04-16T20:26:00.377Z,24.53
2019-04-16T20:28:29.519Z,22.33
2019-04-16T20:31:03.281Z,23.60
2019-04-16T20:33:29.098Z,24.83
2019-04-16T20:35:57.963Z,24.57
2019-04-16T20:38:29.336Z,25.67
2019-04-16T20:40:57.582Z,24.90
2019-04-16T20:43:26.654Z,24.20
2019-04-16T20:45:55.749Z,25.60
2019-04-16T20:48:24.686Z,23.67
2019-04-16T20:50:56.692Z,22.87
2019-04-16T20:53:24.263Z,25.70
2019-04-16T20:55:53.195Z,25.47
2019-04-16T20:58:22.455Z,23.33
2019-04-16T21:00:52.389Z,25.30
2019-04-16T21:03:22.585Z,24.63
2019-04-16T21:05:58.925Z,25.53
2019-04-16T21:08:25.177Z,26.10
2019-04-16T21:10:52.953Z,24.10
2019-04-16T21:13:21.863Z,25.20
2019-04-16T21:15:50.805Z,26.43
2019-04-16T21:18:19.718Z,25.40
2019-04-16T21:20:51.217Z,30.00
2019-04-16T21:23:19.118Z,24.83
2019-04-16T21:25:48.222Z,26.77
2019-04-16T21:28:39.905Z,22.63
2019-04-16T21:31:15.005Z,28.10
2019-04-16T21:33:52.187Z,26.20
2019-04-16T21:36:38.045Z,27.67
2019-04-16T21:39:17.069Z,24.20
2019-04-16T21:41:43.488Z,26.30
2019-04-16T21:44:13.274Z,23.00
2019-04-16T21:46:42.424Z,23.07
2019-04-16T21:49:11.329Z,20.87
2019-04-16T21:51:59.293Z,20.03
2019-04-16T21:54:30.545Z,21.23
2019-04-16T21:56:58.911Z,19.77
2019-04-16T21:59:27.835Z,15.33
2019-04-16T22:01:57.294Z,13.87
2019-04-16T22:04:26.444Z,16.00
2019-04-16T22:06:55.647Z,13.87
2019-04-16T22:09:24.657Z,12.57
2019-04-16T22:11:53.607Z,11.47
2019-04-16T22:14:22.995Z,11.93
2019-04-16T22:16:52.127Z,13.80
2019-04-16T22:19:20.987Z,10.37
2019-04-16T22:21:50.004Z,10.57
2019-04-16T22:24:19.745Z,11.80
2019-04-16T22:26:49.562Z,11.47
2019-04-16T22:29:18.414Z,11.47
2019-04-16T22:31:47.320Z,12.00
2019-04-16T22:34:16.219Z,10.40
2019-04-16T22:36:45.137Z,11.27
2019-04-16T22:39:23.750Z,12.73
2019-04-16T22:42:01.674Z,12.67
2019-04-16T22:45:04.946Z,12.00
2019-04-16T22:47:34.179Z,9.97
2019-04-16T22:50:14.772Z,10.27
2019-04-16T22:52:33.796Z,10.70
2019-04-16T22:55:02.630Z,10.40
2019-04-16T22:57:31.874Z,10.20
2019-04-16T23:00:01.152Z,10.17
2019-04-16T23:02:30.682Z,11.80
2019-04-16T23:05:00.082Z,9.87
2019-04-16T23:07:29.222Z,10.83
2019-04-16T23:09:58.070Z,10.80
2019-04-16T23:12:28.080Z,9.67
2019-04-16T23:14:57.436Z,10.77
2019-04-16T23:17:27.390Z,11.00
2019-04-16T23:19:56.285Z,9.30
2019-04-16T23:22:25.132Z,9.00
2019-04-16T23:24:55.137Z,9.50
2019-04-16T23:27:24.529Z,9.23
2019-04-16T23:29:53.354Z,9.83
2019-04-16T23:32:27.674Z,8.90
2019-04-16T23:34:52.756Z,9.00
2019-04-16T23:37:23.317Z,8.77
2019-04-16T23:39:52.170Z,8.60
2019-04-16T23:42:21.214Z,8.57
2019-04-16T23:45:03.687Z,9.00
2019-04-16T23:47:51.615Z,8.17
2019-04-16T23:50:46.459Z,9.27
2019-04-16T23:53:33.963Z,8.87
2019-04-16T23:56:13.652Z,8.23
2019-04-16T23:59:03.583Z,8.10
